createdAt,value
2023-01-27T00:00:36.088Z,77.26
2023-01-27T00:03:02.689Z,77.34
2023-01-27T00:05:29.209Z,77.04
2023-01-27T00:07:58.701Z,77.64
2023-01-27T00:10:26.435Z,77.39
2023-01-27T00:13:11.906Z,77.76
2023-01-27T00:15:39.898Z,77.82
2023-01-27T00:18:06.864Z,78.79
2023-01-27T00:20:53.989Z,79.21
2023-01-27T00:23:44.274Z,79.04
2023-01-27T00:26:14.356Z,79.39
2023-01-27T00:28:42.592Z,79.38
2023-01-27T00:31:30.949Z,80.08
2023-01-27T00:34:01.934Z,79.48
2023-01-27T00:36:31.563Z,79.97
2023-01-27T00:38:58.105Z,79.93
2023-01-27T00:41:24.688Z,78.97
2023-01-27T00:43:53.919Z,79.48
2023-01-27T00:46:22.828Z,79.31
2023-01-27T00:48:51.831Z,79.56
2023-01-27T00:51:19.427Z,79.67
2023-01-27T00:53:46.777Z,79.11
2023-01-27T00:56:13.546Z,79.86
2023-01-27T00:58:40.560Z,79.33
2023-01-27T01:01:15.105Z,79.40
2023-01-27T01:03:41.800Z,79.44
2023-01-27T01:06:11.752Z,79.61
2023-01-27T01:08:39.207Z,79.34
2023-01-27T01:11:07.482Z,79.33
2023-01-27T01:13:34.544Z,79.13
2023-01-27T01:16:13.261Z,78.53
2023-01-27T01:18:40.184Z,77.50
2023-01-27T01:21:07.703Z,76.52
2023-01-27T01:23:38.292Z,76.23
2023-01-27T01:26:04.958Z,75.50
2023-01-27T01:28:31.714Z,75.37
2023-01-27T01:31:05.552Z,75.21
2023-01-27T01:33:32.144Z,75.21
2023-01-27T01:36:04.656Z,75.25
2023-01-27T01:38:31.194Z,75.55
2023-01-27T01:40:57.808Z,76.14
2023-01-27T01:43:26.392Z,76.46
2023-01-27T01:46:00.590Z,76.19
2023-01-27T01:48:34.888Z,76.12
2023-01-27T01:51:10.776Z,75.76
2023-01-27T01:53:43.855Z,76.13
2023-01-27T01:56:21.287Z,76.93
2023-01-27T01:58:48.924Z,76.14
2023-01-27T02:01:20.725Z,75.61
2023-01-27T02:03:52.105Z,75.21
2023-01-27T02:06:19.565Z,75.18
2023-01-27T02:08:49.193Z,74.66
2023-01-27T02:11:16.021Z,74.34
2023-01-27T02:13:43.276Z,74.30
2023-01-27T02:16:11.994Z,73.49
2023-01-27T02:18:42.028Z,73.69
2023-01-27T02:21:09.475Z,73.18
2023-01-27T02:24:02.248Z,73.20
2023-01-27T02:26:33.479Z,73.53
2023-01-27T02:29:04.405Z,72.70
2023-01-27T02:31:31.072Z,72.78
2023-01-27T02:34:05.104Z,72.81
2023-01-27T02:36:36.236Z,72.86
2023-01-27T02:39:03.645Z,73.25
2023-01-27T02:41:37.508Z,73.95
2023-01-27T02:44:04.202Z,74.23
2023-01-27T02:46:31.099Z,75.32
2023-01-27T02:48:57.633Z,75.70
2023-01-27T02:51:24.456Z,76.36
2023-01-27T02:53:53.911Z,75.50
2023-01-27T02:56:20.548Z,74.21
2023-01-27T02:58:47.177Z,74.19
2023-01-27T03:01:13.749Z,75.17
2023-01-27T03:03:49.393Z,74.68
2023-01-27T03:06:16.335Z,74.17
2023-01-27T03:08:43.202Z,74.57
2023-01-27T03:11:10.937Z,74.01
2023-01-27T03:13:38.285Z,74.46
2023-01-27T03:16:25.093Z,74.86
2023-01-27T03:18:53.871Z,75.36
2023-01-27T03:21:20.564Z,75.99
2023-01-27T03:23:49.199Z,76.32
2023-01-27T03:26:15.877Z,77.07
2023-01-27T03:28:42.702Z,77.61
2023-01-27T03:31:29.900Z,78.44
2023-01-27T03:33:58.223Z,80.22
2023-01-27T03:36:43.456Z,80.27
2023-01-27T03:39:28.906Z,80.34
2023-01-27T03:42:13.868Z,78.32
2023-01-27T03:45:00.278Z,78.42
2023-01-27T03:47:27.237Z,78.90
2023-01-27T03:49:53.739Z,78.61
2023-01-27T03:52:20.248Z,79.41
2023-01-27T03:54:46.808Z,79.86
2023-01-27T03:57:13.322Z,79.34
2023-01-27T03:59:40.027Z,79.23
2023-01-27T04:02:25.232Z,79.81
2023-01-27T04:05:10.172Z,76.24
2023-01-27T04:07:37.608Z,74.16
2023-01-27T04:10:05.603Z,74.73
2023-01-27T04:12:32.480Z,74.63
2023-01-27T04:14:59.044Z,74.15
2023-01-27T04:17:25.569Z,74.83
2023-01-27T04:19:52.104Z,74.39
2023-01-27T04:22:18.864Z,73.88
2023-01-27T04:24:45.468Z,73.55
2023-01-27T04:27:15.386Z,73.33
2023-01-27T04:29:42.746Z,73.50
2023-01-27T04:32:11.347Z,73.97
2023-01-27T04:34:38.877Z,73.75
2023-01-27T04:37:07.072Z,73.72
2023-01-27T04:39:34.319Z,74.74
2023-01-27T04:42:01.191Z,74.77
2023-01-27T04:44:27.841Z,74.01
2023-01-27T04:46:54.903Z,73.64
2023-01-27T04:49:22.331Z,73.08
2023-01-27T04:51:49.163Z,73.56
2023-01-27T04:54:16.185Z,74.09
2023-01-27T04:56:55.116Z,74.13
2023-01-27T04:59:21.699Z,73.96
2023-01-27T05:01:48.212Z,74.14
2023-01-27T05:04:14.825Z,74.49
2023-01-27T05:06:41.373Z,74.41
2023-01-27T05:09:07.913Z,73.57
2023-01-27T05:11:34.434Z,73.58
2023-01-27T05:14:00.928Z,73.13
2023-01-27T05:16:27.680Z,72.05
2023-01-27T05:18:54.642Z,72.55
2023-01-27T05:21:24.040Z,72.95
2023-01-27T05:23:51.137Z,72.97
2023-01-27T05:26:28.965Z,72.49
2023-01-27T05:28:58.001Z,71.83
2023-01-27T05:31:27.846Z,72.08
2023-01-27T05:33:58.892Z,71.79
2023-01-27T05:36:26.817Z,71.59
2023-01-27T05:38:54.610Z,71.42
2023-01-27T05:41:24.080Z,71.35
2023-01-27T05:43:55.763Z,71.02
2023-01-27T05:46:26.267Z,71.43
2023-01-27T05:48:55.236Z,71.61
2023-01-27T05:51:23.899Z,70.85
2023-01-27T05:53:50.671Z,70.33
2023-01-27T05:56:19.795Z,70.31
2023-01-27T05:58:46.450Z,70.38
2023-01-27T06:01:18.624Z,70.16
2023-01-27T06:03:46.122Z,70.71
2023-01-27T06:06:14.085Z,70.63
2023-01-27T06:08:41.868Z,69.71
2023-01-27T06:11:09.031Z,69.38
2023-01-27T06:13:36.212Z,69.65
2023-01-27T06:16:03.914Z,69.12
2023-01-27T06:18:30.574Z,69.10
2023-01-27T06:21:01.684Z,68.03
2023-01-27T06:23:28.956Z,68.34
2023-01-27T06:25:56.979Z,67.18
2023-01-27T06:28:29.300Z,67.25
2023-01-27T06:30:57.278Z,66.89
2023-01-27T06:33:23.971Z,66.70
2023-01-27T06:35:50.632Z,66.87
2023-01-27T06:38:17.253Z,66.66
2023-01-27T06:40:44.342Z,66.53
2023-01-27T06:43:14.707Z,66.69
2023-01-27T06:45:41.576Z,66.26
2023-01-27T06:48:08.854Z,66.43
2023-01-27T06:50:36.580Z,66.54
2023-01-27T06:53:07.145Z,65.66
2023-01-27T06:55:34.788Z,64.45
2023-01-27T06:58:02.611Z,64.23
2023-01-27T07:00:29.892Z,64.34
2023-01-27T07:02:57.146Z,62.86
2023-01-27T07:05:25.688Z,62.41
2023-01-27T07:07:52.467Z,61.52
2023-01-27T07:10:21.525Z,61.38
2023-01-27T07:12:48.154Z,62.56
2023-01-27T07:15:15.068Z,62.03
2023-01-27T07:17:41.911Z,61.73
2023-01-27T07:20:11.854Z,61.58
2023-01-27T07:22:39.209Z,61.55
2023-01-27T07:25:08.942Z,61.20
2023-01-27T07:27:35.573Z,60.86
2023-01-27T07:30:02.168Z,60.49
2023-01-27T07:32:30.569Z,60.94
2023-01-27T07:34:57.102Z,60.63
2023-01-27T07:37:23.654Z,60.70
2023-01-27T07:39:50.327Z,60.66
2023-01-27T07:42:19.791Z,59.62
2023-01-27T07:44:46.335Z,60.23
2023-01-27T07:47:14.017Z,59.84
2023-01-27T07:49:43.394Z,59.86
2023-01-27T07:52:10.096Z,59.67
2023-01-27T07:54:36.600Z,59.60
2023-01-27T07:57:03.186Z,60.25
2023-01-27T07:59:31.462Z,59.92
2023-01-27T08:02:01.060Z,60.52
2023-01-27T08:04:27.586Z,59.92
2023-01-27T08:06:54.148Z,59.64
2023-01-27T08:09:28.044Z,59.65
2023-01-27T08:11:54.540Z,59.92
2023-01-27T08:14:21.017Z,59.71
2023-01-27T08:16:47.709Z,59.78
2023-01-27T08:19:14.377Z,59.28
2023-01-27T08:21:40.920Z,59.08
2023-01-27T08:24:10.294Z,59.75
2023-01-27T08:26:36.833Z,59.44
2023-01-27T08:29:03.421Z,58.46
2023-01-27T08:31:30.026Z,59.12
2023-01-27T08:33:59.476Z,59.49
2023-01-27T08:36:26.264Z,59.32
2023-01-27T08:38:52.907Z,59.75
2023-01-27T08:41:22.786Z,59.91
2023-01-27T08:43:49.972Z,60.07
2023-01-27T08:46:17.093Z,59.60
2023-01-27T08:48:48.919Z,58.83
2023-01-27T08:51:15.469Z,59.21
2023-01-27T08:53:42.147Z,57.61
2023-01-27T08:56:12.872Z,58.47
2023-01-27T08:58:39.649Z,59.24
2023-01-27T09:01:07.321Z,58.47
2023-01-27T09:03:35.212Z,58.98
2023-01-27T09:06:04.605Z,58.16
2023-01-27T09:08:31.652Z,57.56
2023-01-27T09:10:58.351Z,56.81
2023-01-27T09:13:24.863Z,56.98
2023-01-27T09:15:52.668Z,56.73
2023-01-27T09:18:19.535Z,56.72
2023-01-27T09:20:46.143Z,55.76
2023-01-27T09:23:12.698Z,54.65
2023-01-27T09:25:47.757Z,54.80
2023-01-27T09:28:17.224Z,54.98
2023-01-27T09:30:46.380Z,55.21
2023-01-27T09:33:17.095Z,55.34
2023-01-27T09:35:47.764Z,54.67
2023-01-27T09:38:18.429Z,55.06
2023-01-27T09:41:08.947Z,55.51
2023-01-27T09:43:54.200Z,54.87
2023-01-27T09:46:32.093Z,55.33
2023-01-27T09:49:34.650Z,55.29
2023-01-27T09:52:22.898Z,55.13
2023-01-27T09:55:19.343Z,55.31
2023-01-27T09:57:57.651Z,54.04
2023-01-27T10:00:39.060Z,54.55
2023-01-27T10:03:38.286Z,54.50
2023-01-27T10:06:33.232Z,54.27
2023-01-27T10:09:42.241Z,54.22
2023-01-27T10:12:30.459Z,53.99
2023-01-27T10:15:18.672Z,54.62
2023-01-27T10:18:00.524Z,54.85
2023-01-27T10:20:36.969Z,54.41
2023-01-27T10:23:18.554Z,55.01
2023-01-27T10:26:04.726Z,54.42
2023-01-27T10:28:40.461Z,54.28
2023-01-27T10:31:18.035Z,54.62
2023-01-27T10:34:06.654Z,54.43
2023-01-27T10:36:51.998Z,53.78
2023-01-27T10:39:44.162Z,54.00
2023-01-27T10:42:53.266Z,53.95
2023-01-27T10:45:30.767Z,54.33
2023-01-27T10:48:16.125Z,54.39
2023-01-27T10:50:48.416Z,54.15
2023-01-27T10:53:27.166Z,54.22
2023-01-27T10:56:19.494Z,54.08
2023-01-27T10:59:16.164Z,54.11
2023-01-27T11:01:56.835Z,54.63
2023-01-27T11:04:26.396Z,54.56
2023-01-27T11:06:55.296Z,53.71
2023-01-27T11:09:41.055Z,54.61
2023-01-27T11:12:14.174Z,53.65
2023-01-27T11:14:53.149Z,53.55
2023-01-27T11:17:58.201Z,54.18
2023-01-27T11:20:29.688Z,53.77
2023-01-27T11:23:10.916Z,54.05
2023-01-27T11:26:10.765Z,53.05
2023-01-27T11:28:55.706Z,52.17
2023-01-27T11:31:40.290Z,53.24
2023-01-27T11:34:25.201Z,54.00
2023-01-27T11:36:52.211Z,53.26
2023-01-27T11:39:19.453Z,54.14
2023-01-27T11:41:51.897Z,53.76
2023-01-27T11:44:28.490Z,52.46
2023-01-27T11:46:55.898Z,52.71
2023-01-27T11:49:35.743Z,53.63
2023-01-27T11:52:11.729Z,53.03
2023-01-27T11:54:56.474Z,53.70
2023-01-27T11:57:25.167Z,52.78
2023-01-27T11:59:57.215Z,53.26
2023-01-27T12:02:36.453Z,54.26
2023-01-27T12:05:21.473Z,53.50
2023-01-27T12:08:01.757Z,54.10
2023-01-27T12:10:35.492Z,53.86
2023-01-27T12:13:18.747Z,53.75
2023-01-27T12:16:05.465Z,53.44
2023-01-27T12:18:34.499Z,53.35
2023-01-27T12:21:04.282Z,52.36
2023-01-27T12:23:38.112Z,52.64
2023-01-27T12:26:08.138Z,52.66
2023-01-27T12:28:40.002Z,53.59
2023-01-27T12:31:42.595Z,53.80
2023-01-27T12:34:17.907Z,53.11
2023-01-27T12:36:45.901Z,53.74
2023-01-27T12:39:31.550Z,54.30
2023-01-27T12:41:58.498Z,54.10
2023-01-27T12:44:28.959Z,53.79
2023-01-27T12:47:05.381Z,53.59
2023-01-27T12:49:38.187Z,53.49
2023-01-27T12:52:08.569Z,52.96
2023-01-27T12:54:35.636Z,53.39
2023-01-27T12:57:12.537Z,53.44
2023-01-27T12:59:52.460Z,53.22
2023-01-27T13:02:21.510Z,53.17
2023-01-27T13:04:54.318Z,53.47
2023-01-27T13:07:30.345Z,53.51
2023-01-27T13:10:03.733Z,52.90
2023-01-27T13:12:52.372Z,53.20
2023-01-27T13:15:21.668Z,53.50
2023-01-27T13:17:53.037Z,54.00
2023-01-27T13:20:24.992Z,53.00
2023-01-27T13:22:56.983Z,53.09
2023-01-27T13:25:29.041Z,53.00
2023-01-27T13:27:59.850Z,53.94
2023-01-27T13:30:36.995Z,53.87
2023-01-27T13:33:17.414Z,54.27
2023-01-27T13:36:15.161Z,53.02
2023-01-27T13:38:55.657Z,53.65
2023-01-27T13:41:36.178Z,54.15
2023-01-27T13:44:20.037Z,53.96
2023-01-27T13:46:53.348Z,54.00
2023-01-27T13:49:36.250Z,54.85
2023-01-27T13:52:07.521Z,55.60
2023-01-27T13:54:34.274Z,54.75
2023-01-27T13:57:18.461Z,54.72
2023-01-27T14:00:12.540Z,55.10
2023-01-27T14:02:43.860Z,55.01
2023-01-27T14:05:30.465Z,55.11
2023-01-27T14:08:30.829Z,55.67
2023-01-27T14:11:18.746Z,55.96
2023-01-27T14:13:57.848Z,56.43
2023-01-27T14:16:44.332Z,57.61
2023-01-27T14:19:39.067Z,57.65
2023-01-27T14:22:35.266Z,57.96
2023-01-27T14:25:35.508Z,58.62
2023-01-27T14:28:32.988Z,58.07
2023-01-27T14:31:06.647Z,57.58
2023-01-27T14:33:46.871Z,58.11
2023-01-27T14:36:26.632Z,58.90
2023-01-27T14:39:32.265Z,58.86
2023-01-27T14:45:21.561Z,59.17
2023-01-27T14:48:25.115Z,58.79
2023-01-27T14:51:07.890Z,58.83
2023-01-27T14:53:52.899Z,57.96
2023-01-27T14:56:29.668Z,57.95
2023-01-27T14:59:09.510Z,57.89
2023-01-27T15:01:54.636Z,57.91
2023-01-27T15:04:38.366Z,58.35
2023-01-27T15:07:36.569Z,58.96
2023-01-27T15:10:07.788Z,59.13
2023-01-27T15:12:53.717Z,59.07
2023-01-27T15:15:32.220Z,59.40
2023-01-27T15:18:36.286Z,59.92
2023-01-27T15:21:05.484Z,60.89
2023-01-27T15:23:59.927Z,62.11
2023-01-27T15:26:28.847Z,62.81
2023-01-27T15:28:57.656Z,63.22
2023-01-27T15:31:29.558Z,64.00
2023-01-27T15:33:57.814Z,64.64
2023-01-27T15:36:27.430Z,65.53
2023-01-27T15:38:59.926Z,65.80
2023-01-27T15:41:27.231Z,66.20
2023-01-27T15:44:24.610Z,66.37
2023-01-27T15:46:54.788Z,66.82
2023-01-27T15:49:24.435Z,67.50
2023-01-27T15:51:54.465Z,67.47
2023-01-27T15:54:31.673Z,67.97
2023-01-27T15:57:06.281Z,68.33
2023-01-27T16:00:07.461Z,68.19
2023-01-27T16:02:44.794Z,69.20
2023-01-27T16:05:27.235Z,69.62
2023-01-27T16:07:58.457Z,68.71
2023-01-27T16:10:30.097Z,68.90
2023-01-27T16:13:14.926Z,68.70
2023-01-27T16:15:41.534Z,69.57
2023-01-27T16:18:08.092Z,69.06
2023-01-27T16:20:49.084Z,70.81
2023-01-27T16:23:33.310Z,70.43
2023-01-27T16:26:31.214Z,68.80
2023-01-27T16:29:16.850Z,70.84
2023-01-27T16:31:46.651Z,71.03
2023-01-27T16:34:23.397Z,69.78
2023-01-27T16:37:01.026Z,70.67
2023-01-27T16:39:37.859Z,69.86
2023-01-27T16:42:05.218Z,68.78
2023-01-27T16:44:43.531Z,69.15
2023-01-27T16:47:42.561Z,68.48
2023-01-27T16:50:34.159Z,68.75
2023-01-27T16:53:01.406Z,68.74
2023-01-27T16:55:28.177Z,68.64
2023-01-27T16:57:56.842Z,68.36
2023-01-27T17:00:28.584Z,69.03
2023-01-27T17:02:59.338Z,69.16
2023-01-27T17:05:30.218Z,69.50
2023-01-27T17:08:17.577Z,69.43
2023-01-27T17:11:04.199Z,69.39
2023-01-27T17:13:45.266Z,70.69
2023-01-27T17:16:23.235Z,71.18
2023-01-27T17:18:52.767Z,70.57
2023-01-27T17:21:33.451Z,71.64
2023-01-27T17:24:33.404Z,71.34
2023-01-27T17:27:12.663Z,72.23
2023-01-27T17:29:42.824Z,71.31
2023-01-27T17:32:54.073Z,72.00
2023-01-27T17:35:23.908Z,72.58
2023-01-27T17:37:50.636Z,72.53
2023-01-27T17:40:22.225Z,73.73
2023-01-27T17:42:50.073Z,73.82
2023-01-27T17:45:28.719Z,73.44
2023-01-27T17:47:59.687Z,74.28
2023-01-27T17:50:33.121Z,73.84
2023-01-27T17:53:00.114Z,73.92
2023-01-27T17:55:29.219Z,74.39
2023-01-27T17:58:10.634Z,73.50
2023-01-27T18:00:40.334Z,72.53
2023-01-27T18:03:17.279Z,72.61
2023-01-27T18:05:46.155Z,72.60
2023-01-27T18:08:12.803Z,71.89
2023-01-27T18:10:45.955Z,71.68
2023-01-27T18:13:19.884Z,70.75
2023-01-27T18:15:50.856Z,71.39
2023-01-27T18:18:36.963Z,70.98
2023-01-27T18:21:05.039Z,71.06
2023-01-27T18:23:34.672Z,71.01
2023-01-27T18:26:10.316Z,71.21
2023-01-27T18:28:38.146Z,70.44
2023-01-27T18:31:12.068Z,71.45
2023-01-27T18:33:43.053Z,70.45
2023-01-27T18:36:22.276Z,70.96
2023-01-27T18:38:50.922Z,70.51
2023-01-27T18:41:32.604Z,71.07
2023-01-27T18:44:03.015Z,70.87
2023-01-27T18:46:29.604Z,71.15
2023-01-27T18:48:56.350Z,71.73
2023-01-27T18:51:22.985Z,71.21
2023-01-27T18:53:49.552Z,71.89
2023-01-27T18:56:16.735Z,70.99
2023-01-27T18:58:43.397Z,71.52
2023-01-27T19:01:20.095Z,71.11
2023-01-27T19:03:46.654Z,71.01
2023-01-27T19:06:16.929Z,71.23
2023-01-27T19:08:44.230Z,71.69
2023-01-27T19:11:15.240Z,72.09
2023-01-27T19:13:43.303Z,71.90
2023-01-27T19:16:16.398Z,71.43
2023-01-27T19:18:44.708Z,72.19
2023-01-27T19:21:13.689Z,71.32
2023-01-27T19:23:44.459Z,70.80
2023-01-27T19:26:17.006Z,70.88
2023-01-27T19:28:45.083Z,70.74
2023-01-27T19:31:11.744Z,70.25
2023-01-27T19:33:39.066Z,69.97
2023-01-27T19:36:08.581Z,70.26
2023-01-27T19:38:35.053Z,69.55
2023-01-27T19:41:01.566Z,69.77
2023-01-27T19:43:28.229Z,69.34
2023-01-27T19:45:54.809Z,69.60
2023-01-27T19:48:23.344Z,69.14
2023-01-27T19:50:50.971Z,69.66
2023-01-27T19:53:19.671Z,69.04
2023-01-27T19:55:47.661Z,69.28
2023-01-27T19:58:22.072Z,69.26
2023-01-27T20:00:48.788Z,68.67
2023-01-27T20:03:15.312Z,68.42
2023-01-27T20:05:41.844Z,68.44
2023-01-27T20:08:22.333Z,69.07
2023-01-27T20:10:52.090Z,68.71
2023-01-27T20:13:20.026Z,68.46
2023-01-27T20:15:46.997Z,67.80
2023-01-27T20:18:16.019Z,67.92
2023-01-27T20:20:44.273Z,67.89
2023-01-27T20:23:15.143Z,68.12
2023-01-27T20:25:42.072Z,68.54
2023-01-27T20:28:09.970Z,68.22
2023-01-27T20:30:36.601Z,69.10
2023-01-27T20:33:04.522Z,68.75
2023-01-27T20:35:31.305Z,68.40
2023-01-27T20:37:57.858Z,68.79
2023-01-27T20:40:27.985Z,68.36
2023-01-27T20:42:57.637Z,68.95
2023-01-27T20:45:24.385Z,68.26
2023-01-27T20:47:53.124Z,68.39
2023-01-27T20:50:21.246Z,67.80
2023-01-27T20:52:51.248Z,68.48
2023-01-27T20:55:19.476Z,69.12
2023-01-27T20:57:47.166Z,69.43
2023-01-27T21:00:21.678Z,69.36
2023-01-27T21:02:48.821Z,68.55
2023-01-27T21:05:15.967Z,68.20
2023-01-27T21:07:42.890Z,67.88
2023-01-27T21:10:10.046Z,67.75
2023-01-27T21:12:36.652Z,67.86
2023-01-27T21:15:09.442Z,67.92
2023-01-27T21:17:35.994Z,68.10
2023-01-27T21:20:02.558Z,67.33
2023-01-27T21:22:29.159Z,67.38
2023-01-27T21:24:55.876Z,68.27
2023-01-27T21:27:22.365Z,67.88
2023-01-27T21:29:48.962Z,67.64
2023-01-27T21:32:15.469Z,67.66
2023-01-27T21:34:42.030Z,66.71
2023-01-27T21:37:08.571Z,67.11
2023-01-27T21:39:35.103Z,67.18
2023-01-27T21:42:01.612Z,67.59
2023-01-27T21:44:48.016Z,67.06
2023-01-27T21:47:17.141Z,67.54
2023-01-27T21:50:00.446Z,67.38
2023-01-27T21:52:46.482Z,67.57
2023-01-27T21:55:21.476Z,66.95
2023-01-27T21:57:50.966Z,67.12
2023-01-27T22:00:28.593Z,66.93
2023-01-27T22:02:57.556Z,67.94
2023-01-27T22:05:24.572Z,67.53
2023-01-27T22:07:52.228Z,67.36
2023-01-27T22:10:20.965Z,67.22
2023-01-27T22:12:47.947Z,67.69
2023-01-27T22:15:16.149Z,67.52
2023-01-27T22:17:44.189Z,68.43
2023-01-27T22:20:15.495Z,68.26
2023-01-27T22:22:45.561Z,68.47
2023-01-27T22:25:14.306Z,68.68
2023-01-27T22:27:41.943Z,68.80
2023-01-27T22:30:14.419Z,69.20
2023-01-27T22:32:41.160Z,69.04
2023-01-27T22:35:08.397Z,68.87
2023-01-27T22:37:36.149Z,68.71
2023-01-27T22:40:02.836Z,69.37
2023-01-27T22:42:29.451Z,69.41
2023-01-27T22:44:56.014Z,69.90
2023-01-27T22:47:22.581Z,69.26
2023-01-27T22:49:49.129Z,70.09
2023-01-27T22:52:16.714Z,69.93
2023-01-27T22:54:46.087Z,70.46
2023-01-27T22:57:12.583Z,70.65
2023-01-27T22:59:39.135Z,70.90
2023-01-27T23:02:05.667Z,70.50
2023-01-27T23:04:32.165Z,71.15
2023-01-27T23:06:58.759Z,70.58
2023-01-27T23:09:25.292Z,70.90
2023-01-27T23:11:51.826Z,70.55
2023-01-27T23:14:19.039Z,70.65
2023-01-27T23:16:45.591Z,71.21
2023-01-27T23:19:12.169Z,70.96
2023-01-27T23:21:38.716Z,71.24
2023-01-27T23:24:07.577Z,71.14
2023-01-27T23:26:34.421Z,71.17
2023-01-27T23:29:01.047Z,71.74
2023-01-27T23:31:27.678Z,71.09
2023-01-27T23:33:54.340Z,70.91
2023-01-27T23:36:20.813Z,71.35
2023-01-27T23:38:47.381Z,72.21
2023-01-27T23:41:18.321Z,71.73
2023-01-27T23:43:50.448Z,71.06
2023-01-27T23:46:17.157Z,72.45
2023-01-27T23:48:43.770Z,71.62
2023-01-27T23:51:13.671Z,73.02
2023-01-27T23:53:40.233Z,71.15
2023-01-27T23:56:09.050Z,71.57
2023-01-27T23:58:35.578Z,71.11
